createdAt,value
2023-08-24T00:00:35.617Z,4.17
2023-08-24T00:03:04.887Z,4.27
2023-08-24T00:05:36.061Z,4.60
2023-08-24T00:08:04.766Z,4.40
2023-08-24T00:10:33.263Z,4.30
2023-08-24T00:13:01.447Z,4.23
2023-08-24T00:15:31.614Z,4.10
2023-08-24T00:18:02.163Z,4.50
2023-08-24T00:20:30.065Z,4.30
2023-08-24T00:22:58.164Z,4.53
2023-08-24T00:25:26.822Z,4.03
2023-08-24T00:27:55.254Z,4.30
2023-08-24T00:30:23.316Z,4.60
2023-08-24T00:32:53.157Z,3.80
2023-08-24T00:35:21.326Z,4.30
2023-08-24T00:37:49.483Z,4.87
2023-08-24T00:40:17.628Z,4.57
2023-08-24T00:42:47.538Z,4.77
2023-08-24T00:45:15.597Z,5.47
2023-08-24T00:47:46.506Z,5.00
2023-08-24T00:50:19.736Z,5.30
2023-08-24T00:52:49.761Z,5.20
2023-08-24T00:55:19.106Z,5.10
2023-08-24T00:57:48.400Z,5.03
2023-08-24T01:00:16.975Z,5.27
2023-08-24T01:02:45.203Z,4.63
2023-08-24T01:05:13.460Z,5.30
2023-08-24T01:07:43.567Z,5.77
2023-08-24T01:10:13.353Z,5.40
2023-08-24T01:13:02.321Z,5.37
2023-08-24T01:15:35.514Z,5.40
2023-08-24T01:18:07.816Z,5.47
2023-08-24T01:20:38.690Z,5.27
2023-08-24T01:23:26.773Z,5.53
2023-08-24T01:25:56.487Z,5.30
2023-08-24T01:28:26.868Z,5.40
2023-08-24T01:30:55.577Z,6.13
2023-08-24T01:33:23.751Z,5.50
2023-08-24T01:35:52.332Z,5.70
2023-08-24T01:38:20.228Z,6.23
2023-08-24T01:40:56.265Z,5.80
2023-08-24T01:43:42.471Z,5.97
2023-08-24T01:46:16.387Z,6.17
2023-08-24T01:48:47.512Z,5.90
2023-08-24T01:51:16.438Z,5.53
2023-08-24T01:53:46.016Z,5.80
2023-08-24T02:00:03.456Z,5.97
2023-08-24T02:02:31.673Z,6.00
2023-08-24T02:04:59.637Z,6.03
2023-08-24T02:07:27.683Z,6.23
2023-08-24T02:09:55.607Z,6.47
2023-08-24T02:12:23.707Z,6.60
2023-08-24T02:14:51.893Z,6.80
2023-08-24T02:17:21.175Z,6.57
2023-08-24T02:19:48.987Z,6.10
2023-08-24T02:22:17.112Z,6.17
2023-08-24T02:24:45.446Z,6.07
2023-08-24T02:27:13.678Z,6.77
2023-08-24T02:29:41.705Z,6.37
2023-08-24T02:32:09.806Z,6.80
2023-08-24T02:34:39.956Z,7.07
2023-08-24T02:37:07.989Z,5.83
2023-08-24T02:39:36.103Z,6.23
2023-08-24T02:42:04.340Z,6.13
2023-08-24T02:44:32.564Z,6.17
2023-08-24T02:47:00.811Z,6.07
2023-08-24T02:49:28.688Z,6.67
2023-08-24T02:51:58.341Z,6.20
2023-08-24T02:54:26.449Z,6.10
2023-08-24T02:56:55.942Z,6.60
2023-08-24T02:59:23.717Z,6.43
2023-08-24T03:01:51.969Z,6.90
2023-08-24T03:04:20.695Z,7.13
2023-08-24T03:06:48.921Z,6.27
2023-08-24T03:09:18.725Z,6.90
2023-08-24T03:11:46.759Z,6.23
2023-08-24T03:14:15.011Z,6.80
2023-08-24T03:16:42.857Z,6.50
2023-08-24T03:19:12.146Z,6.20
2023-08-24T03:21:39.978Z,5.97
2023-08-24T03:24:08.662Z,6.40
2023-08-24T03:26:38.246Z,6.60
2023-08-24T03:29:06.076Z,7.10
2023-08-24T03:31:34.077Z,6.60
2023-08-24T03:34:02.243Z,6.47
2023-08-24T03:36:30.261Z,6.40
2023-08-24T03:38:58.208Z,6.57
2023-08-24T03:41:26.116Z,5.90
2023-08-24T03:43:56.070Z,6.07
2023-08-24T03:46:24.089Z,5.90
2023-08-24T03:48:52.134Z,6.30
2023-08-24T03:51:20.325Z,6.20
2023-08-24T03:53:48.303Z,5.27
2023-08-24T03:56:16.522Z,5.40
2023-08-24T03:58:44.805Z,6.37
2023-08-24T04:01:16.565Z,6.27
2023-08-24T04:03:44.550Z,6.23
2023-08-24T04:06:12.400Z,5.77
2023-08-24T04:08:40.272Z,6.20
2023-08-24T04:11:08.347Z,6.20
2023-08-24T04:13:36.218Z,6.10
2023-08-24T04:16:05.129Z,6.40
2023-08-24T04:18:34.961Z,6.33
2023-08-24T04:21:02.921Z,5.87
2023-08-24T04:23:30.968Z,5.90
2023-08-24T04:25:59.045Z,5.50
2023-08-24T04:28:27.434Z,5.47
2023-08-24T04:30:58.190Z,4.77
2023-08-24T04:33:26.146Z,5.50
2023-08-24T04:35:56.620Z,5.30
2023-08-24T04:38:24.757Z,5.33
2023-08-24T04:40:54.182Z,5.60
2023-08-24T04:43:24.130Z,5.37
2023-08-24T04:45:53.788Z,5.40
2023-08-24T04:48:22.998Z,5.50
2023-08-24T04:50:51.486Z,5.80
2023-08-24T04:53:22.864Z,5.30
2023-08-24T04:55:51.056Z,5.30
2023-08-24T04:58:19.471Z,5.00
2023-08-24T05:00:47.710Z,5.00
2023-08-24T05:03:15.657Z,4.90
2023-08-24T05:05:43.785Z,4.80
2023-08-24T05:08:13.330Z,5.30
2023-08-24T05:10:43.644Z,5.03
2023-08-24T05:13:12.051Z,4.93
2023-08-24T05:15:40.062Z,4.80
2023-08-24T05:18:08.395Z,5.00
2023-08-24T05:20:36.298Z,4.50
2023-08-24T05:23:05.673Z,4.70
2023-08-24T05:25:35.337Z,5.17
2023-08-24T05:28:05.252Z,5.10
2023-08-24T05:30:33.327Z,5.17
2023-08-24T05:33:01.925Z,4.73
2023-08-24T05:35:30.410Z,4.83
2023-08-24T05:37:58.918Z,5.13
2023-08-24T05:40:27.192Z,4.30
2023-08-24T05:42:55.990Z,4.57
2023-08-24T05:45:26.883Z,4.47
2023-08-24T05:47:55.547Z,4.97
2023-08-24T05:50:23.695Z,5.60
2023-08-24T05:52:51.863Z,4.60
2023-08-24T05:55:20.385Z,4.63
2023-08-24T05:57:48.886Z,4.97
2023-08-24T06:00:18.323Z,5.10
2023-08-24T06:02:47.735Z,6.00
2023-08-24T06:05:15.719Z,6.33
2023-08-24T06:07:43.489Z,5.07
2023-08-24T06:10:12.867Z,5.90
2023-08-24T06:12:41.485Z,7.30
2023-08-24T06:15:11.821Z,6.50
2023-08-24T06:17:40.213Z,6.57
2023-08-24T06:20:12.396Z,6.23
2023-08-24T06:22:40.262Z,5.93
2023-08-24T06:25:09.976Z,6.47
2023-08-24T06:27:38.090Z,6.03
2023-08-24T06:30:08.219Z,6.00
2023-08-24T06:32:36.866Z,5.87
2023-08-24T06:35:05.237Z,6.30
2023-08-24T06:37:35.376Z,5.80
2023-08-24T06:40:04.110Z,6.30
2023-08-24T06:42:31.908Z,5.87
2023-08-24T06:45:00.028Z,6.03
2023-08-24T06:47:28.620Z,5.37
2023-08-24T06:49:56.357Z,5.80
2023-08-24T06:52:24.448Z,5.83
2023-08-24T06:54:56.458Z,5.57
2023-08-24T06:57:24.914Z,5.57
2023-08-24T06:59:53.234Z,5.40
2023-08-24T07:02:21.261Z,6.00
2023-08-24T07:04:49.494Z,5.27
2023-08-24T07:07:17.437Z,5.60
2023-08-24T07:09:45.605Z,5.63
2023-08-24T07:12:15.726Z,5.87
2023-08-24T07:14:43.487Z,6.00
2023-08-24T07:17:11.524Z,5.13
2023-08-24T07:19:39.447Z,5.83
2023-08-24T07:22:07.610Z,5.90
2023-08-24T07:24:45.263Z,6.07
2023-08-24T07:27:18.076Z,5.57
2023-08-24T07:29:46.016Z,5.50
2023-08-24T07:32:13.959Z,5.60
2023-08-24T07:34:42.075Z,5.67
2023-08-24T07:37:10.051Z,5.37
2023-08-24T07:39:38.098Z,5.67
2023-08-24T07:42:06.135Z,5.20
2023-08-24T07:44:35.847Z,5.50
2023-08-24T07:47:04.633Z,5.33
2023-08-24T07:49:32.593Z,5.13
2023-08-24T07:52:00.676Z,4.80
2023-08-24T07:54:28.883Z,5.47
2023-08-24T07:56:57.144Z,5.10
2023-08-24T07:59:25.533Z,5.10
2023-08-24T08:05:36.323Z,4.70
2023-08-24T08:08:05.952Z,4.90
2023-08-24T08:10:34.140Z,4.63
2023-08-24T08:13:02.332Z,5.03
2023-08-24T08:15:30.309Z,4.80
2023-08-24T08:17:58.619Z,4.30
2023-08-24T08:20:26.925Z,4.57
2023-08-24T08:22:57.289Z,4.33
2023-08-24T08:25:25.491Z,4.20
2023-08-24T08:27:53.522Z,4.27
2023-08-24T08:30:22.796Z,4.17
2023-08-24T08:32:52.351Z,4.17
2023-08-24T08:35:20.955Z,4.30
2023-08-24T08:37:51.067Z,3.83
2023-08-24T08:40:21.282Z,4.40
2023-08-24T08:42:49.624Z,4.10
2023-08-24T08:45:21.252Z,3.70
2023-08-24T08:47:49.497Z,3.80
2023-08-24T08:50:18.316Z,3.87
2023-08-24T08:52:46.206Z,4.00
2023-08-24T08:55:16.720Z,4.07
2023-08-24T08:57:46.938Z,3.87
2023-08-24T09:00:17.954Z,3.93
2023-08-24T09:02:47.862Z,4.47
2023-08-24T09:05:17.171Z,4.07
2023-08-24T09:07:46.036Z,3.60
2023-08-24T09:10:13.947Z,4.30
2023-08-24T09:12:41.954Z,3.40
2023-08-24T09:15:14.690Z,4.00
2023-08-24T09:17:46.196Z,3.83
2023-08-24T09:20:16.839Z,3.60
2023-08-24T09:22:46.580Z,3.77
2023-08-24T09:25:15.046Z,3.60
2023-08-24T09:27:43.381Z,3.50
2023-08-24T09:30:14.356Z,3.50
2023-08-24T09:32:43.140Z,3.53
2023-08-24T09:35:12.282Z,3.50
2023-08-24T09:37:40.685Z,3.60
2023-08-24T09:40:10.368Z,2.97
2023-08-24T09:42:43.355Z,3.42
2023-08-24T09:45:15.087Z,3.13
2023-08-24T09:47:47.867Z,3.20
2023-08-24T09:50:15.717Z,3.00
2023-08-24T09:52:45.190Z,2.70
2023-08-24T09:55:15.753Z,2.87
2023-08-24T09:57:45.105Z,2.80
2023-08-24T10:00:17.116Z,2.70
2023-08-24T10:02:52.525Z,3.17
2023-08-24T10:05:34.368Z,3.28
2023-08-24T10:08:09.691Z,2.88
2023-08-24T10:10:38.691Z,2.90
2023-08-24T10:13:13.529Z,3.03
2023-08-24T10:15:48.177Z,2.55
2023-08-24T10:18:17.984Z,2.58
2023-08-24T10:20:47.982Z,2.60
2023-08-24T10:23:18.706Z,2.55
2023-08-24T10:25:48.311Z,2.60
2023-08-24T10:28:17.636Z,2.80
2023-08-24T10:30:48.051Z,2.60
2023-08-24T10:33:17.043Z,2.80
2023-08-24T10:35:48.173Z,2.30
2023-08-24T10:38:27.145Z,2.97
2023-08-24T10:40:55.807Z,2.40
2023-08-24T10:43:24.886Z,2.80
2023-08-24T10:46:02.025Z,2.70
2023-08-24T10:48:31.237Z,2.60
2023-08-24T10:51:27.472Z,2.40
2023-08-24T10:53:59.464Z,2.40
2023-08-24T10:56:39.532Z,2.63
2023-08-24T10:59:17.930Z,2.35
2023-08-24T11:01:59.461Z,2.60
2023-08-24T11:04:27.415Z,2.50
2023-08-24T11:06:57.295Z,2.88
2023-08-24T11:09:25.919Z,2.40
2023-08-24T11:12:02.196Z,2.30
2023-08-24T11:14:35.273Z,2.20
2023-08-24T11:17:20.378Z,2.45
2023-08-24T11:19:51.205Z,2.42
2023-08-24T11:22:19.501Z,2.28
2023-08-24T11:24:47.728Z,2.30
2023-08-24T11:27:15.784Z,2.72
2023-08-24T11:29:43.967Z,2.38
2023-08-24T11:32:13.398Z,2.20
2023-08-24T11:34:41.528Z,2.58
2023-08-24T11:37:20.986Z,2.13
2023-08-24T11:39:49.120Z,2.42
2023-08-24T11:42:17.514Z,2.28
2023-08-24T11:44:49.998Z,2.30
2023-08-24T11:47:24.311Z,2.35
2023-08-24T11:49:52.259Z,2.22
2023-08-24T11:52:20.437Z,2.47
2023-08-24T11:54:49.834Z,2.42
2023-08-24T11:57:19.395Z,1.95
2023-08-24T11:59:47.470Z,2.28
2023-08-24T12:02:15.478Z,2.10
2023-08-24T12:04:45.439Z,2.65
2023-08-24T12:07:14.568Z,2.35
2023-08-24T12:09:42.999Z,2.17
2023-08-24T12:12:15.777Z,2.13
2023-08-24T12:14:44.304Z,2.20
2023-08-24T12:17:12.959Z,2.13
2023-08-24T12:19:46.531Z,2.10
2023-08-24T12:22:18.403Z,2.30
2023-08-24T12:24:48.106Z,2.20
2023-08-24T12:27:24.966Z,1.98
2023-08-24T12:29:53.968Z,2.20
2023-08-24T12:32:26.338Z,2.50
2023-08-24T12:34:56.416Z,2.38
2023-08-24T12:37:24.710Z,2.35
2023-08-24T12:39:52.689Z,2.38
2023-08-24T12:42:20.737Z,2.38
2023-08-24T12:44:48.794Z,2.30
2023-08-24T12:47:16.533Z,2.65
2023-08-24T12:49:45.119Z,2.50
2023-08-24T12:52:15.090Z,2.58
2023-08-24T12:54:42.902Z,2.30
2023-08-24T12:57:11.253Z,2.47
2023-08-24T12:59:39.202Z,2.53
2023-08-24T13:02:08.300Z,2.53
2023-08-24T13:04:37.222Z,2.80
2023-08-24T13:07:05.471Z,2.30
2023-08-24T13:09:34.793Z,2.78
2023-08-24T13:12:04.167Z,2.63
2023-08-24T13:14:32.608Z,2.50
2023-08-24T13:17:00.893Z,2.55
2023-08-24T13:19:28.821Z,2.55
2023-08-24T13:21:56.667Z,2.92
2023-08-24T13:24:24.733Z,3.05
2023-08-24T13:26:54.245Z,3.00
2023-08-24T13:29:22.234Z,3.53
2023-08-24T13:31:50.084Z,2.67
2023-08-24T13:34:18.555Z,2.33
2023-08-24T13:36:46.627Z,3.63
2023-08-24T13:39:14.960Z,2.53
2023-08-24T13:41:43.084Z,2.40
2023-08-24T13:44:13.059Z,3.42
2023-08-24T13:46:41.050Z,4.03
2023-08-24T13:49:09.934Z,2.55
2023-08-24T13:51:37.831Z,2.40
2023-08-24T13:54:15.913Z,2.30
2023-08-24T13:56:43.922Z,2.25
2023-08-24T13:59:13.630Z,2.42
2023-08-24T14:01:42.238Z,2.42
2023-08-24T14:04:11.311Z,2.72
2023-08-24T14:06:39.149Z,2.35
2023-08-24T14:09:09.517Z,2.30
2023-08-24T14:11:38.428Z,2.55
2023-08-24T14:14:06.348Z,2.22
2023-08-24T14:16:37.212Z,2.42
2023-08-24T14:19:09.578Z,1.95
2023-08-24T14:21:45.004Z,2.33
2023-08-24T14:24:14.663Z,2.30
2023-08-24T14:26:46.999Z,2.28
2023-08-24T14:29:15.918Z,2.20
2023-08-24T14:31:45.305Z,2.33
2023-08-24T14:34:13.411Z,2.13
2023-08-24T14:36:41.546Z,2.20
2023-08-24T14:39:09.605Z,2.53
2023-08-24T14:41:37.626Z,2.50
2023-08-24T14:44:05.845Z,2.47
2023-08-24T14:46:35.202Z,2.53
2023-08-24T14:49:05.102Z,2.30
2023-08-24T14:51:33.037Z,2.55
2023-08-24T14:54:00.882Z,2.28
2023-08-24T14:56:28.940Z,2.35
2023-08-24T14:58:57.081Z,2.60
2023-08-24T15:01:26.069Z,2.70
2023-08-24T15:03:53.827Z,2.50
2023-08-24T15:06:23.836Z,2.70
2023-08-24T15:08:51.908Z,2.67
2023-08-24T15:11:21.093Z,2.40
2023-08-24T15:13:50.123Z,2.67
2023-08-24T15:16:18.594Z,2.97
2023-08-24T15:18:46.714Z,2.63
2023-08-24T15:21:16.389Z,2.20
2023-08-24T15:23:47.185Z,2.40
2023-08-24T15:26:16.293Z,2.40
2023-08-24T15:29:11.947Z,2.40
2023-08-24T15:31:40.488Z,2.83
2023-08-24T15:34:08.961Z,2.70
2023-08-24T15:36:37.957Z,3.20
2023-08-24T15:39:07.481Z,2.20
2023-08-24T15:41:35.348Z,2.92
2023-08-24T15:44:03.237Z,3.10
2023-08-24T15:46:31.847Z,3.15
2023-08-24T15:49:00.128Z,2.80
2023-08-24T15:51:28.448Z,3.30
2023-08-24T15:53:56.371Z,2.70
2023-08-24T15:56:25.911Z,2.90
2023-08-24T15:58:54.352Z,2.22
2023-08-24T16:01:22.715Z,2.63
2023-08-24T16:03:50.721Z,2.50
2023-08-24T16:06:19.000Z,2.70
2023-08-24T16:08:47.269Z,2.72
2023-08-24T16:11:16.280Z,2.70
2023-08-24T16:13:46.064Z,3.42
2023-08-24T16:16:14.205Z,2.60
2023-08-24T16:18:42.320Z,3.10
2023-08-24T16:21:11.338Z,2.90
2023-08-24T16:23:39.140Z,2.72
2023-08-24T16:26:07.228Z,2.83
2023-08-24T16:28:37.216Z,2.92
2023-08-24T16:31:07.287Z,2.55
2023-08-24T16:33:36.005Z,2.80
2023-08-24T16:36:04.234Z,2.83
2023-08-24T16:38:32.752Z,2.72
2023-08-24T16:41:00.891Z,2.80
2023-08-24T16:43:30.365Z,2.95
2023-08-24T16:45:58.189Z,2.97
2023-08-24T16:48:27.875Z,3.10
2023-08-24T16:50:56.170Z,2.95
2023-08-24T16:53:24.515Z,2.92
2023-08-24T16:55:55.861Z,3.35
2023-08-24T16:58:23.790Z,3.53
2023-08-24T17:00:51.737Z,3.40
2023-08-24T17:03:20.109Z,3.30
2023-08-24T17:05:51.876Z,3.20
2023-08-24T17:08:19.986Z,3.15
2023-08-24T17:10:47.975Z,3.63
2023-08-24T17:13:16.326Z,3.40
2023-08-24T17:15:44.156Z,3.25
2023-08-24T17:18:12.077Z,3.22
2023-08-24T17:20:41.107Z,2.83
2023-08-24T17:23:10.958Z,2.63
2023-08-24T17:25:40.361Z,3.00
2023-08-24T17:28:08.265Z,2.55
2023-08-24T17:30:36.450Z,2.42
2023-08-24T17:33:05.386Z,2.80
2023-08-24T17:35:33.280Z,2.60
2023-08-24T17:38:02.623Z,2.60
2023-08-24T17:40:32.060Z,2.60
2023-08-24T17:43:00.236Z,2.88
2023-08-24T17:45:28.584Z,2.78
2023-08-24T17:47:57.118Z,2.85
2023-08-24T17:50:25.218Z,3.23
2023-08-24T17:52:53.607Z,2.30
2023-08-24T17:55:21.486Z,2.50
2023-08-24T17:57:52.726Z,2.50
2023-08-24T18:00:21.186Z,2.53
2023-08-24T18:02:49.023Z,2.30
2023-08-24T18:05:17.048Z,2.63
2023-08-24T18:07:44.938Z,2.80
2023-08-24T18:10:12.901Z,3.00
2023-08-24T18:12:41.540Z,3.70
2023-08-24T18:15:15.037Z,2.90
2023-08-24T18:17:46.408Z,2.70
2023-08-24T18:20:16.341Z,3.00
2023-08-24T18:22:44.434Z,2.90
2023-08-24T18:25:13.214Z,3.30
2023-08-24T18:27:41.224Z,2.67
2023-08-24T18:30:12.813Z,2.77
2023-08-24T18:32:40.863Z,2.63
2023-08-24T18:35:09.456Z,2.80
2023-08-24T18:37:37.453Z,2.90
2023-08-24T18:40:07.178Z,2.40
2023-08-24T18:42:35.603Z,2.70
2023-08-24T18:45:03.571Z,3.10
2023-08-24T18:47:33.218Z,2.70
2023-08-24T18:50:01.199Z,3.10
2023-08-24T18:52:30.404Z,3.60
2023-08-24T18:54:58.633Z,2.90
2023-08-24T18:57:26.464Z,2.93
2023-08-24T18:59:54.343Z,2.63
2023-08-24T19:02:22.280Z,2.87
2023-08-24T19:04:53.183Z,2.80
2023-08-24T19:07:22.127Z,3.50
2023-08-24T19:09:49.942Z,2.80
2023-08-24T19:12:17.821Z,3.07
2023-08-24T19:14:45.950Z,3.00
2023-08-24T19:17:14.505Z,2.67
2023-08-24T19:19:42.544Z,2.87
2023-08-24T19:22:12.203Z,2.50
2023-08-24T19:24:40.177Z,2.60
2023-08-24T19:27:08.071Z,2.97
2023-08-24T19:29:36.451Z,2.50
2023-08-24T19:32:04.754Z,2.50
2023-08-24T19:34:32.902Z,2.90
2023-08-24T19:37:01.469Z,2.80
2023-08-24T19:39:31.073Z,2.93
2023-08-24T19:42:00.385Z,2.40
2023-08-24T19:44:29.066Z,2.53
2023-08-24T19:46:57.005Z,2.97
2023-08-24T19:49:25.303Z,2.80
2023-08-24T19:51:53.343Z,2.70
2023-08-24T19:54:21.744Z,2.63
2023-08-24T19:56:51.372Z,2.67
2023-08-24T19:59:19.850Z,2.50
2023-08-24T20:01:48.696Z,2.60
2023-08-24T20:04:16.534Z,2.93
2023-08-24T20:06:44.828Z,3.10
2023-08-24T20:09:13.695Z,2.60
2023-08-24T20:11:42.731Z,2.50
2023-08-24T20:14:12.306Z,3.07
2023-08-24T20:16:40.363Z,2.70
2023-08-24T20:19:08.205Z,2.80
2023-08-24T20:21:36.274Z,2.57
2023-08-24T20:24:05.377Z,2.90
2023-08-24T20:26:33.427Z,2.60
2023-08-24T20:29:01.230Z,2.63
2023-08-24T20:31:30.827Z,2.60
2023-08-24T20:33:59.246Z,2.93
2023-08-24T20:36:28.236Z,3.87
2023-08-24T20:38:56.142Z,4.20
2023-08-24T20:41:24.065Z,3.60
2023-08-24T20:43:51.868Z,3.03
2023-08-24T20:46:20.373Z,3.40
2023-08-24T20:48:49.937Z,2.83
2023-08-24T20:51:17.728Z,2.67
2023-08-24T20:53:45.799Z,3.20
2023-08-24T20:56:14.615Z,3.00
2023-08-24T20:58:45.682Z,2.80
2023-08-24T21:01:13.720Z,2.57
2023-08-24T21:03:41.951Z,2.80
2023-08-24T21:06:11.267Z,2.80
2023-08-24T21:08:39.335Z,2.73
2023-08-24T21:11:07.443Z,2.90
2023-08-24T21:13:35.390Z,2.90
2023-08-24T21:16:04.052Z,2.93
2023-08-24T21:18:32.252Z,2.50
2023-08-24T21:21:00.760Z,2.90
2023-08-24T21:23:30.881Z,2.83
2023-08-24T21:25:58.929Z,2.70
2023-08-24T21:28:26.809Z,2.80
2023-08-24T21:30:54.740Z,2.50
2023-08-24T21:33:22.864Z,2.87
2023-08-24T21:35:50.877Z,2.47
2023-08-24T21:38:18.678Z,3.10
2023-08-24T21:40:48.101Z,3.17
2023-08-24T21:43:16.165Z,2.87
2023-08-24T21:45:44.283Z,2.90
2023-08-24T21:48:13.222Z,2.63
2023-08-24T21:50:42.994Z,2.90
2023-08-24T21:53:10.893Z,3.43
2023-08-24T21:55:39.330Z,3.17
2023-08-24T21:58:09.496Z,2.83
2023-08-24T22:00:37.502Z,3.13
2023-08-24T22:03:06.055Z,3.30
2023-08-24T22:05:33.982Z,2.63
2023-08-24T22:08:02.261Z,3.33
2023-08-24T22:10:30.350Z,3.60
2023-08-24T22:12:58.328Z,3.07
2023-08-24T22:15:28.283Z,3.50
2023-08-24T22:17:56.743Z,3.67
2023-08-24T22:20:25.788Z,3.10
2023-08-24T22:22:53.729Z,3.20
2023-08-24T22:25:22.763Z,3.67
2023-08-24T22:27:50.672Z,3.40
2023-08-24T22:30:20.456Z,3.47
2023-08-24T22:32:50.066Z,3.30
2023-08-24T22:35:18.601Z,3.60
2023-08-24T22:37:47.015Z,3.43
2023-08-24T22:40:14.984Z,3.47
2023-08-24T22:42:43.052Z,3.47
2023-08-24T22:45:11.750Z,3.77
2023-08-24T22:47:39.793Z,4.03
2023-08-24T22:50:10.844Z,4.03
2023-08-24T22:52:42.205Z,3.70
2023-08-24T22:55:11.944Z,4.00
2023-08-24T22:57:41.296Z,3.40
2023-08-24T23:00:10.613Z,3.60
2023-08-24T23:02:38.655Z,3.60
2023-08-24T23:05:07.443Z,4.00
2023-08-24T23:07:36.994Z,3.90
2023-08-24T23:10:07.426Z,3.97
2023-08-24T23:12:37.892Z,4.80
2023-08-24T23:15:08.047Z,4.20
2023-08-24T23:17:36.019Z,4.47
2023-08-24T23:20:08.173Z,4.80
2023-08-24T23:22:37.952Z,4.60
2023-08-24T23:25:06.500Z,4.23
2023-08-24T23:27:34.810Z,4.63
2023-08-24T23:30:03.270Z,4.30
2023-08-24T23:32:31.585Z,4.23
2023-08-24T23:34:59.517Z,4.70
2023-08-24T23:37:28.369Z,4.40
2023-08-24T23:39:59.262Z,4.10
2023-08-24T23:42:28.759Z,4.03
2023-08-24T23:44:57.165Z,4.00
2023-08-24T23:47:25.218Z,3.93
2023-08-24T23:49:53.545Z,4.30
2023-08-24T23:52:22.770Z,4.10
2023-08-24T23:54:50.769Z,4.43
2023-08-24T23:57:21.193Z,3.90
2023-08-24T23:59:49.483Z,3.63
